Terminal Aerodrome Forecast
Issued by NWS

Home | Current Version | Previous Version | Text Only | Print | Product List | Glossary On
Versions: 1 2 3 4 5 6 7 8 9 10 11 12 13 14 15 16 17 18
161
FTUS46 KSGX 261738
TAFCRQ
TAF
KCRQ 261738Z 2618/2718 17006KT P6SM BKN035
     FM261930 24009KT P6SM SCT022
     FM270130 VRB05KT P6SM BKN015=

USA.gov is the U.S. government's official web portal to all federal, state and local government web resources and services.